sensor_id;sensor_type;location;lat;lon;timestamp;temperature;humidity
27858;DHT22;16852;51.446;6.528;2022-12-18T00:01:57;-1.90;99.90
27858;DHT22;16852;51.446;6.528;2022-12-18T00:04:01;-1.90;99.90
27858;DHT22;16852;51.446;6.528;2022-12-18T00:06:06;-1.90;99.90
27858;DHT22;16852;51.446;6.528;2022-12-18T00:08:06;-1.90;99.90
27858;DHT22;16852;51.446;6.528;2022-12-18T00:10:07;-1.90;99.90
27858;DHT22;16852;51.446;6.528;2022-12-18T00:12:08;-1.90;99.90
27858;DHT22;16852;51.446;6.528;2022-12-18T00:14:11;-1.90;99.90
27858;DHT22;16852;51.446;6.528;2022-12-18T00:16:14;-1.90;99.90
27858;DHT22;16852;51.446;6.528;2022-12-18T00:18:15;-1.80;99.90
27858;DHT22;16852;51.446;6.528;2022-12-18T00:20:15;-1.80;99.90
27858;DHT22;16852;51.446;6.528;2022-12-18T00:22:21;-1.80;99.90
27858;DHT22;16852;51.446;6.528;2022-12-18T00:24:21;-1.80;99.90
27858;DHT22;16852;51.446;6.528;2022-12-18T00:26:24;-1.80;99.90
27858;DHT22;16852;51.446;6.528;2022-12-18T00:28:25;-1.80;99.90
27858;DHT22;16852;51.446;6.528;2022-12-18T00:30:25;-1.90;99.90
27858;DHT22;16852;51.446;6.528;2022-12-18T00:32:26;-1.90;99.90
27858;DHT22;16852;51.446;6.528;2022-12-18T00:34:26;-2.00;99.90
27858;DHT22;16852;51.446;6.528;2022-12-18T00:36:31;-2.00;99.90
27858;DHT22;16852;51.446;6.528;2022-12-18T00:38:33;-2.00;99.90
27858;DHT22;16852;51.446;6.528;2022-12-18T00:40:34;-2.00;99.90
27858;DHT22;16852;51.446;6.528;2022-12-18T00:42:35;-2.00;99.90
27858;DHT22;16852;51.446;6.528;2022-12-18T00:44:54;-2.00;99.90
27858;DHT22;16852;51.446;6.528;2022-12-18T00:46:54;-2.10;99.90
27858;DHT22;16852;51.446;6.528;2022-12-18T00:48:55;-2.10;99.90
27858;DHT22;16852;51.446;6.528;2022-12-18T00:50:55;-2.10;99.90
27858;DHT22;16852;51.446;6.528;2022-12-18T00:52:56;-2.10;99.90
27858;DHT22;16852;51.446;6.528;2022-12-18T00:54:57;-2.20;99.90
27858;DHT22;16852;51.446;6.528;2022-12-18T00:56:57;-2.20;99.90
27858;DHT22;16852;51.446;6.528;2022-12-18T00:58:58;-2.20;99.90
27858;DHT22;16852;51.446;6.528;2022-12-18T01:00:58;-2.20;99.90
27858;DHT22;16852;51.446;6.528;2022-12-18T01:02:59;-2.20;99.90
27858;DHT22;16852;51.446;6.528;2022-12-18T01:04:59;-2.20;99.90
27858;DHT22;16852;51.446;6.528;2022-12-18T01:07:00;-2.20;99.90
27858;DHT22;16852;51.446;6.528;2022-12-18T01:09:01;-2.20;99.90
27858;DHT22;16852;51.446;6.528;2022-12-18T01:11:08;-2.20;99.90
27858;DHT22;16852;51.446;6.528;2022-12-18T01:13:09;-2.10;99.90
27858;DHT22;16852;51.446;6.528;2022-12-18T01:15:12;-2.10;99.90
27858;DHT22;16852;51.446;6.528;2022-12-18T01:17:13;-2.10;99.90
27858;DHT22;16852;51.446;6.528;2022-12-18T01:19:14;-2.10;99.90
27858;DHT22;16852;51.446;6.528;2022-12-18T01:21:15;-2.10;99.90
27858;DHT22;16852;51.446;6.528;2022-12-18T01:23:16;-2.20;99.90
27858;DHT22;16852;51.446;6.528;2022-12-18T01:25:17;-2.10;99.90
27858;DHT22;16852;51.446;6.528;2022-12-18T01:27:18;-2.20;99.90
27858;DHT22;16852;51.446;6.528;2022-12-18T01:29:18;-2.10;99.90
27858;DHT22;16852;51.446;6.528;2022-12-18T01:31:21;-2.10;99.90
27858;DHT22;16852;51.446;6.528;2022-12-18T01:33:22;-2.10;99.90
27858;DHT22;16852;51.446;6.528;2022-12-18T01:35:23;-2.10;99.90
27858;DHT22;16852;51.446;6.528;2022-12-18T01:37:23;-2.10;99.90
27858;DHT22;16852;51.446;6.528;2022-12-18T01:39:24;-2.10;99.90
27858;DHT22;16852;51.446;6.528;2022-12-18T01:41:28;-2.10;99.90
27858;DHT22;16852;51.446;6.528;2022-12-18T01:43:55;-2.10;99.90
27858;DHT22;16852;51.446;6.528;2022-12-18T01:45:59;-2.20;99.90
27858;DHT22;16852;51.446;6.528;2022-12-18T01:48:05;-2.10;99.90
27858;DHT22;16852;51.446;6.528;2022-12-18T01:50:28;-2.10;99.90
27858;DHT22;16852;51.446;6.528;2022-12-18T01:52:32;-2.10;99.90
27858;DHT22;16852;51.446;6.528;2022-12-18T01:54:33;-2.00;99.90
27858;DHT22;16852;51.446;6.528;2022-12-18T01:56:34;-2.00;99.90
27858;DHT22;16852;51.446;6.528;2022-12-18T01:58:43;-2.00;99.90
27858;DHT22;16852;51.446;6.528;2022-12-18T02:00:46;-2.10;99.90
27858;DHT22;16852;51.446;6.528;2022-12-18T02:02:46;-2.10;99.90
27858;DHT22;16852;51.446;6.528;2022-12-18T02:04:47;-2.10;99.90
27858;DHT22;16852;51.446;6.528;2022-12-18T02:07:15;-2.10;99.90
27858;DHT22;16852;51.446;6.528;2022-12-18T02:09:18;-2.10;99.90
27858;DHT22;16852;51.446;6.528;2022-12-18T02:11:40;-2.10;99.90
27858;DHT22;16852;51.446;6.528;2022-12-18T02:16:49;-2.10;99.90
27858;DHT22;16852;51.446;6.528;2022-12-18T02:18:50;-2.10;99.90
27858;DHT22;16852;51.446;6.528;2022-12-18T02:21:11;-2.10;99.90
27858;DHT22;16852;51.446;6.528;2022-12-18T02:28:13;-2.20;99.90
27858;DHT22;16852;51.446;6.528;2022-12-18T02:30:15;-2.10;99.90
27858;DHT22;16852;51.446;6.528;2022-12-18T02:32:24;-2.10;99.90
27858;DHT22;16852;51.446;6.528;2022-12-18T02:34:29;-2.20;99.90
27858;DHT22;16852;51.446;6.528;2022-12-18T02:36:32;-2.10;99.90
27858;DHT22;16852;51.446;6.528;2022-12-18T02:38:34;-2.10;99.90
27858;DHT22;16852;51.446;6.528;2022-12-18T02:40:36;-2.10;99.90
27858;DHT22;16852;51.446;6.528;2022-12-18T02:42:37;-2.10;99.90
27858;DHT22;16852;51.446;6.528;2022-12-18T02:44:46;-2.10;99.90
27858;DHT22;16852;51.446;6.528;2022-12-18T02:46:50;-2.10;99.90
27858;DHT22;16852;51.446;6.528;2022-12-18T02:51:32;-2.10;99.90
27858;DHT22;16852;51.446;6.528;2022-12-18T02:53:47;-2.10;99.90
27858;DHT22;16852;51.446;6.528;2022-12-18T03:00:58;-2.10;99.90
27858;DHT22;16852;51.446;6.528;2022-12-18T03:03:30;-2.00;99.90
27858;DHT22;16852;51.446;6.528;2022-12-18T03:06:10;-2.10;99.90
27858;DHT22;16852;51.446;6.528;2022-12-18T03:08:19;-2.10;99.90
27858;DHT22;16852;51.446;6.528;2022-12-18T03:10:26;-2.00;99.90
27858;DHT22;16852;51.446;6.528;2022-12-18T03:12:31;-2.00;99.90
27858;DHT22;16852;51.446;6.528;2022-12-18T03:14:34;-2.10;99.90
27858;DHT22;16852;51.446;6.528;2022-12-18T03:16:39;-2.10;99.90
27858;DHT22;16852;51.446;6.528;2022-12-18T03:18:48;-2.10;99.90
27858;DHT22;16852;51.446;6.528;2022-12-18T03:20:51;-2.10;99.90
27858;DHT22;16852;51.446;6.528;2022-12-18T03:22:59;-2.10;99.90
27858;DHT22;16852;51.446;6.528;2022-12-18T03:25:06;-2.00;99.90
27858;DHT22;16852;51.446;6.528;2022-12-18T03:27:13;-2.00;99.90
27858;DHT22;16852;51.446;6.528;2022-12-18T03:31:41;-2.10;99.90
27858;DHT22;16852;51.446;6.528;2022-12-18T03:33:54;-2.10;99.90
27858;DHT22;16852;51.446;6.528;2022-12-18T03:35:55;-2.00;99.90
27858;DHT22;16852;51.446;6.528;2022-12-18T03:37:56;-2.00;99.90
27858;DHT22;16852;51.446;6.528;2022-12-18T03:39:56;-2.10;99.90
27858;DHT22;16852;51.446;6.528;2022-12-18T03:42:27;-2.00;99.90
27858;DHT22;16852;51.446;6.528;2022-12-18T03:44:36;-2.10;99.90
27858;DHT22;16852;51.446;6.528;2022-12-18T03:49:11;-2.10;99.90
27858;DHT22;16852;51.446;6.528;2022-12-18T03:54:05;-2.00;99.90
27858;DHT22;16852;51.446;6.528;2022-12-18T03:56:07;-2.10;99.90
27858;DHT22;16852;51.446;6.528;2022-12-18T03:58:11;-2.00;99.90
27858;DHT22;16852;51.446;6.528;2022-12-18T04:00:33;-2.00;99.90
27858;DHT22;16852;51.446;6.528;2022-12-18T04:02:34;-2.00;99.90
27858;DHT22;16852;51.446;6.528;2022-12-18T04:04:37;-2.00;99.90
27858;DHT22;16852;51.446;6.528;2022-12-18T04:06:39;-2.00;99.90
27858;DHT22;16852;51.446;6.528;2022-12-18T04:08:40;-2.00;99.90
27858;DHT22;16852;51.446;6.528;2022-12-18T04:10:41;-2.00;99.90
27858;DHT22;16852;51.446;6.528;2022-12-18T04:12:42;-2.00;99.90
27858;DHT22;16852;51.446;6.528;2022-12-18T04:14:43;-2.00;99.90
27858;DHT22;16852;51.446;6.528;2022-12-18T04:16:44;-2.00;99.90
27858;DHT22;16852;51.446;6.528;2022-12-18T04:18:44;-2.00;99.90
27858;DHT22;16852;51.446;6.528;2022-12-18T04:20:45;-2.00;99.90
27858;DHT22;16852;51.446;6.528;2022-12-18T04:22:47;-2.00;99.90
27858;DHT22;16852;51.446;6.528;2022-12-18T04:24:47;-2.00;99.90
27858;DHT22;16852;51.446;6.528;2022-12-18T04:26:48;-2.00;99.90
27858;DHT22;16852;51.446;6.528;2022-12-18T04:28:48;-2.00;99.90
27858;DHT22;16852;51.446;6.528;2022-12-18T04:30:49;-2.00;99.90
27858;DHT22;16852;51.446;6.528;2022-12-18T04:32:50;-2.00;99.90
27858;DHT22;16852;51.446;6.528;2022-12-18T04:34:50;-2.00;99.90
27858;DHT22;16852;51.446;6.528;2022-12-18T04:36:51;-1.90;99.90
27858;DHT22;16852;51.446;6.528;2022-12-18T04:38:51;-1.90;99.90
27858;DHT22;16852;51.446;6.528;2022-12-18T04:40:52;-1.90;99.90
27858;DHT22;16852;51.446;6.528;2022-12-18T04:42:52;-2.00;99.90
27858;DHT22;16852;51.446;6.528;2022-12-18T04:44:53;-2.00;99.90
27858;DHT22;16852;51.446;6.528;2022-12-18T04:46:54;-1.90;99.90
27858;DHT22;16852;51.446;6.528;2022-12-18T04:48:54;-1.90;99.90
27858;DHT22;16852;51.446;6.528;2022-12-18T04:50:55;-1.90;99.90
27858;DHT22;16852;51.446;6.528;2022-12-18T04:52:55;-1.90;99.90
27858;DHT22;16852;51.446;6.528;2022-12-18T04:54:56;-1.90;99.90
27858;DHT22;16852;51.446;6.528;2022-12-18T04:56:56;-2.00;99.90
27858;DHT22;16852;51.446;6.528;2022-12-18T04:58:57;-1.90;99.90
27858;DHT22;16852;51.446;6.528;2022-12-18T05:00:57;-1.90;99.90
27858;DHT22;16852;51.446;6.528;2022-12-18T05:03:01;-1.90;99.90
27858;DHT22;16852;51.446;6.528;2022-12-18T05:05:02;-1.90;99.90
27858;DHT22;16852;51.446;6.528;2022-12-18T05:07:03;-1.90;99.90
27858;DHT22;16852;51.446;6.528;2022-12-18T05:09:03;-1.90;99.90
27858;DHT22;16852;51.446;6.528;2022-12-18T05:11:09;-1.90;99.90
27858;DHT22;16852;51.446;6.528;2022-12-18T05:13:10;-1.90;99.90
27858;DHT22;16852;51.446;6.528;2022-12-18T05:15:11;-1.80;99.90
27858;DHT22;16852;51.446;6.528;2022-12-18T05:17:11;-1.80;99.90
27858;DHT22;16852;51.446;6.528;2022-12-18T05:19:12;-1.80;99.90
27858;DHT22;16852;51.446;6.528;2022-12-18T05:21:13;-1.80;99.90
27858;DHT22;16852;51.446;6.528;2022-12-18T05:23:13;-1.80;99.90
27858;DHT22;16852;51.446;6.528;2022-12-18T05:25:14;-1.80;99.90
27858;DHT22;16852;51.446;6.528;2022-12-18T05:27:15;-1.90;99.90
27858;DHT22;16852;51.446;6.528;2022-12-18T05:29:16;-1.80;99.90
27858;DHT22;16852;51.446;6.528;2022-12-18T05:31:16;-1.80;99.90
27858;DHT22;16852;51.446;6.528;2022-12-18T05:33:18;-1.80;99.90
27858;DHT22;16852;51.446;6.528;2022-12-18T05:35:19;-1.80;99.90
27858;DHT22;16852;51.446;6.528;2022-12-18T05:37:19;-1.80;99.90
27858;DHT22;16852;51.446;6.528;2022-12-18T05:39:21;-1.80;99.90
27858;DHT22;16852;51.446;6.528;2022-12-18T05:41:21;-1.70;99.90
27858;DHT22;16852;51.446;6.528;2022-12-18T05:43:25;-1.80;99.90
27858;DHT22;16852;51.446;6.528;2022-12-18T05:45:26;-1.80;99.90
27858;DHT22;16852;51.446;6.528;2022-12-18T05:47:27;-1.70;99.90
27858;DHT22;16852;51.446;6.528;2022-12-18T05:49:28;-1.70;99.90
27858;DHT22;16852;51.446;6.528;2022-12-18T05:51:29;-1.70;99.90
27858;DHT22;16852;51.446;6.528;2022-12-18T05:53:30;-1.70;99.90
27858;DHT22;16852;51.446;6.528;2022-12-18T05:55:34;-1.70;99.90
27858;DHT22;16852;51.446;6.528;2022-12-18T05:57:35;-1.70;99.90
27858;DHT22;16852;51.446;6.528;2022-12-18T05:59:36;-1.70;99.90
27858;DHT22;16852;51.446;6.528;2022-12-18T06:01:36;-1.70;99.90
27858;DHT22;16852;51.446;6.528;2022-12-18T06:03:37;-1.70;99.90
27858;DHT22;16852;51.446;6.528;2022-12-18T06:05:40;-1.70;99.90
27858;DHT22;16852;51.446;6.528;2022-12-18T06:07:41;-1.70;99.90
27858;DHT22;16852;51.446;6.528;2022-12-18T06:09:41;-1.70;99.90
27858;DHT22;16852;51.446;6.528;2022-12-18T06:11:42;-1.60;99.90
27858;DHT22;16852;51.446;6.528;2022-12-18T06:13:42;-1.60;99.90
27858;DHT22;16852;51.446;6.528;2022-12-18T06:15:43;-1.70;99.90
27858;DHT22;16852;51.446;6.528;2022-12-18T06:17:43;-1.70;99.90
27858;DHT22;16852;51.446;6.528;2022-12-18T06:19:44;-1.60;99.90
27858;DHT22;16852;51.446;6.528;2022-12-18T06:21:44;-1.60;99.90
27858;DHT22;16852;51.446;6.528;2022-12-18T06:23:45;-1.60;99.90
27858;DHT22;16852;51.446;6.528;2022-12-18T06:25:45;-1.60;99.90
27858;DHT22;16852;51.446;6.528;2022-12-18T06:27:47;-1.60;99.90
27858;DHT22;16852;51.446;6.528;2022-12-18T06:29:48;-1.60;99.90
27858;DHT22;16852;51.446;6.528;2022-12-18T06:31:48;-1.70;99.90
27858;DHT22;16852;51.446;6.528;2022-12-18T06:33:49;-1.70;99.90
27858;DHT22;16852;51.446;6.528;2022-12-18T06:35:50;-1.70;99.90
27858;DHT22;16852;51.446;6.528;2022-12-18T06:37:50;-1.70;99.90
27858;DHT22;16852;51.446;6.528;2022-12-18T06:39:52;-1.70;99.90
27858;DHT22;16852;51.446;6.528;2022-12-18T06:41:52;-1.90;99.90
27858;DHT22;16852;51.446;6.528;2022-12-18T06:43:53;-1.80;99.90
27858;DHT22;16852;51.446;6.528;2022-12-18T06:46:00;-1.90;99.90
27858;DHT22;16852;51.446;6.528;2022-12-18T06:48:01;-1.90;99.90
27858;DHT22;16852;51.446;6.528;2022-12-18T06:50:02;-1.90;99.90
27858;DHT22;16852;51.446;6.528;2022-12-18T06:52:02;-1.90;99.90
27858;DHT22;16852;51.446;6.528;2022-12-18T06:54:03;-2.00;99.90
27858;DHT22;16852;51.446;6.528;2022-12-18T06:56:06;-2.00;99.90
27858;DHT22;16852;51.446;6.528;2022-12-18T06:58:07;-2.00;99.90
27858;DHT22;16852;51.446;6.528;2022-12-18T07:00:08;-2.00;99.90
27858;DHT22;16852;51.446;6.528;2022-12-18T07:02:11;-2.00;99.90
27858;DHT22;16852;51.446;6.528;2022-12-18T07:04:12;-2.00;99.90
27858;DHT22;16852;51.446;6.528;2022-12-18T07:06:19;-1.90;99.90
27858;DHT22;16852;51.446;6.528;2022-12-18T07:08:20;-1.90;99.90
27858;DHT22;16852;51.446;6.528;2022-12-18T07:10:20;-2.00;99.90
27858;DHT22;16852;51.446;6.528;2022-12-18T07:12:21;-2.00;99.90
27858;DHT22;16852;51.446;6.528;2022-12-18T07:14:21;-1.90;99.90
27858;DHT22;16852;51.446;6.528;2022-12-18T07:16:22;-1.90;99.90
27858;DHT22;16852;51.446;6.528;2022-12-18T07:18:22;-1.90;99.90
27858;DHT22;16852;51.446;6.528;2022-12-18T07:20:23;-1.90;99.90
27858;DHT22;16852;51.446;6.528;2022-12-18T07:22:25;-1.90;99.90
27858;DHT22;16852;51.446;6.528;2022-12-18T07:24:26;-1.90;99.90
27858;DHT22;16852;51.446;6.528;2022-12-18T07:26:27;-1.90;99.90
27858;DHT22;16852;51.446;6.528;2022-12-18T07:28:27;-1.90;99.90
27858;DHT22;16852;51.446;6.528;2022-12-18T07:30:28;-1.90;99.90
27858;DHT22;16852;51.446;6.528;2022-12-18T07:32:30;-1.80;99.90
27858;DHT22;16852;51.446;6.528;2022-12-18T07:34:30;-1.80;99.90
27858;DHT22;16852;51.446;6.528;2022-12-18T07:36:31;-1.90;99.90
27858;DHT22;16852;51.446;6.528;2022-12-18T07:38:33;-1.80;99.90
27858;DHT22;16852;51.446;6.528;2022-12-18T07:40:34;-1.80;99.90
27858;DHT22;16852;51.446;6.528;2022-12-18T07:42:34;-1.80;99.90
27858;DHT22;16852;51.446;6.528;2022-12-18T07:44:36;-1.80;99.90
27858;DHT22;16852;51.446;6.528;2022-12-18T07:46:37;-1.80;99.90
27858;DHT22;16852;51.446;6.528;2022-12-18T07:48:38;-1.80;99.90
27858;DHT22;16852;51.446;6.528;2022-12-18T07:50:38;-1.80;99.90
27858;DHT22;16852;51.446;6.528;2022-12-18T07:52:40;-1.80;99.90
27858;DHT22;16852;51.446;6.528;2022-12-18T07:54:40;-1.80;99.90
27858;DHT22;16852;51.446;6.528;2022-12-18T07:56:41;-1.90;99.90
27858;DHT22;16852;51.446;6.528;2022-12-18T07:58:42;-1.90;99.90
27858;DHT22;16852;51.446;6.528;2022-12-18T08:00:44;-1.90;99.90
27858;DHT22;16852;51.446;6.528;2022-12-18T08:02:45;-1.80;99.90
27858;DHT22;16852;51.446;6.528;2022-12-18T08:04:45;-1.80;99.90
27858;DHT22;16852;51.446;6.528;2022-12-18T08:06:46;-1.80;99.90
27858;DHT22;16852;51.446;6.528;2022-12-18T08:08:46;-1.80;99.90
27858;DHT22;16852;51.446;6.528;2022-12-18T08:10:47;-1.80;99.90
27858;DHT22;16852;51.446;6.528;2022-12-18T08:12:51;-1.80;99.90
27858;DHT22;16852;51.446;6.528;2022-12-18T08:14:51;-1.80;99.90
27858;DHT22;16852;51.446;6.528;2022-12-18T08:16:52;-1.70;99.90
27858;DHT22;16852;51.446;6.528;2022-12-18T08:18:53;-1.60;99.90
27858;DHT22;16852;51.446;6.528;2022-12-18T08:20:54;-1.60;99.90
27858;DHT22;16852;51.446;6.528;2022-12-18T08:22:55;-1.60;99.90
27858;DHT22;16852;51.446;6.528;2022-12-18T08:24:55;-1.50;99.90
27858;DHT22;16852;51.446;6.528;2022-12-18T08:26:56;-1.50;99.90
27858;DHT22;16852;51.446;6.528;2022-12-18T08:28:58;-1.40;99.90
27858;DHT22;16852;51.446;6.528;2022-12-18T08:31:00;-1.40;99.90
27858;DHT22;16852;51.446;6.528;2022-12-18T08:33:00;-1.40;99.90
27858;DHT22;16852;51.446;6.528;2022-12-18T08:35:01;-1.30;99.90
27858;DHT22;16852;51.446;6.528;2022-12-18T08:37:01;-1.30;99.90
27858;DHT22;16852;51.446;6.528;2022-12-18T08:39:02;-1.20;99.90
27858;DHT22;16852;51.446;6.528;2022-12-18T08:41:05;-1.20;99.90
27858;DHT22;16852;51.446;6.528;2022-12-18T08:43:09;-1.10;99.90
27858;DHT22;16852;51.446;6.528;2022-12-18T08:45:28;-1.10;99.90
27858;DHT22;16852;51.446;6.528;2022-12-18T08:47:29;-1.10;99.90
27858;DHT22;16852;51.446;6.528;2022-12-18T08:49:30;-1.00;99.90
27858;DHT22;16852;51.446;6.528;2022-12-18T08:51:30;-1.00;99.90
27858;DHT22;16852;51.446;6.528;2022-12-18T08:53:31;-1.00;99.90
27858;DHT22;16852;51.446;6.528;2022-12-18T08:55:31;-0.90;99.90
27858;DHT22;16852;51.446;6.528;2022-12-18T08:57:32;-0.90;99.90
27858;DHT22;16852;51.446;6.528;2022-12-18T08:59:33;-0.90;99.90
27858;DHT22;16852;51.446;6.528;2022-12-18T09:01:33;-0.80;99.90
27858;DHT22;16852;51.446;6.528;2022-12-18T09:03:34;-0.80;99.90
27858;DHT22;16852;51.446;6.528;2022-12-18T09:05:35;-0.80;99.90
27858;DHT22;16852;51.446;6.528;2022-12-18T09:07:35;-0.80;99.90
27858;DHT22;16852;51.446;6.528;2022-12-18T09:09:36;-0.70;99.90
27858;DHT22;16852;51.446;6.528;2022-12-18T09:11:37;-0.70;99.90
27858;DHT22;16852;51.446;6.528;2022-12-18T09:13:37;-0.60;99.90
27858;DHT22;16852;51.446;6.528;2022-12-18T09:15:46;-0.60;99.90
27858;DHT22;16852;51.446;6.528;2022-12-18T09:17:47;-0.60;99.90
27858;DHT22;16852;51.446;6.528;2022-12-18T09:19:48;-0.50;99.90
27858;DHT22;16852;51.446;6.528;2022-12-18T09:21:49;-0.50;99.90
27858;DHT22;16852;51.446;6.528;2022-12-18T09:23:50;-0.50;99.90
27858;DHT22;16852;51.446;6.528;2022-12-18T09:25:51;-0.50;99.90
27858;DHT22;16852;51.446;6.528;2022-12-18T09:27:52;-0.40;99.90
27858;DHT22;16852;51.446;6.528;2022-12-18T09:29:52;-0.40;99.90
27858;DHT22;16852;51.446;6.528;2022-12-18T09:31:53;-0.30;99.90
27858;DHT22;16852;51.446;6.528;2022-12-18T09:33:55;-0.30;99.90
27858;DHT22;16852;51.446;6.528;2022-12-18T09:35:55;-0.20;99.90
27858;DHT22;16852;51.446;6.528;2022-12-18T09:37:56;-0.30;99.90
27858;DHT22;16852;51.446;6.528;2022-12-18T09:39:57;-0.20;99.90
27858;DHT22;16852;51.446;6.528;2022-12-18T09:41:58;-0.20;99.90
27858;DHT22;16852;51.446;6.528;2022-12-18T09:44:13;-0.20;99.90
27858;DHT22;16852;51.446;6.528;2022-12-18T09:46:23;-0.10;99.90
27858;DHT22;16852;51.446;6.528;2022-12-18T09:48:31;-0.10;99.90
27858;DHT22;16852;51.446;6.528;2022-12-18T09:50:38;0.00;99.90
27858;DHT22;16852;51.446;6.528;2022-12-18T09:52:43;0.00;99.90
27858;DHT22;16852;51.446;6.528;2022-12-18T09:54:53;0.00;99.90
27858;DHT22;16852;51.446;6.528;2022-12-18T09:56:55;0.00;99.90
27858;DHT22;16852;51.446;6.528;2022-12-18T09:58:59;0.00;99.90
27858;DHT22;16852;51.446;6.528;2022-12-18T10:00:59;0.00;99.90
27858;DHT22;16852;51.446;6.528;2022-12-18T10:03:08;0.10;99.90
27858;DHT22;16852;51.446;6.528;2022-12-18T10:05:15;0.10;99.90
27858;DHT22;16852;51.446;6.528;2022-12-18T10:07:27;0.10;99.90
27858;DHT22;16852;51.446;6.528;2022-12-18T10:09:37;0.10;99.90
27858;DHT22;16852;51.446;6.528;2022-12-18T10:16:47;0.20;99.90
27858;DHT22;16852;51.446;6.528;2022-12-18T10:19:05;0.20;99.90
27858;DHT22;16852;51.446;6.528;2022-12-18T10:21:39;0.30;99.90
27858;DHT22;16852;51.446;6.528;2022-12-18T10:23:52;0.30;99.90
27858;DHT22;16852;51.446;6.528;2022-12-18T10:26:07;0.30;99.90
27858;DHT22;16852;51.446;6.528;2022-12-18T10:28:13;0.40;99.90
27858;DHT22;16852;51.446;6.528;2022-12-18T10:30:16;0.40;99.90
27858;DHT22;16852;51.446;6.528;2022-12-18T10:32:24;0.40;99.90
27858;DHT22;16852;51.446;6.528;2022-12-18T10:34:25;0.50;99.90
27858;DHT22;16852;51.446;6.528;2022-12-18T10:36:26;0.50;99.90
27858;DHT22;16852;51.446;6.528;2022-12-18T10:38:28;0.50;99.90
27858;DHT22;16852;51.446;6.528;2022-12-18T10:40:29;0.50;99.90
27858;DHT22;16852;51.446;6.528;2022-12-18T10:42:29;0.60;99.90
27858;DHT22;16852;51.446;6.528;2022-12-18T10:44:30;0.60;99.90
27858;DHT22;16852;51.446;6.528;2022-12-18T10:46:31;0.60;99.90
27858;DHT22;16852;51.446;6.528;2022-12-18T10:48:34;0.70;99.90
27858;DHT22;16852;51.446;6.528;2022-12-18T10:50:36;0.70;99.90
27858;DHT22;16852;51.446;6.528;2022-12-18T10:52:37;0.70;99.90
27858;DHT22;16852;51.446;6.528;2022-12-18T10:54:38;0.70;99.90
27858;DHT22;16852;51.446;6.528;2022-12-18T10:56:40;0.70;99.90
27858;DHT22;16852;51.446;6.528;2022-12-18T10:58:40;0.70;99.90
27858;DHT22;16852;51.446;6.528;2022-12-18T11:00:41;0.70;99.90
27858;DHT22;16852;51.446;6.528;2022-12-18T11:02:42;0.70;99.90
27858;DHT22;16852;51.446;6.528;2022-12-18T11:04:50;0.70;99.90
27858;DHT22;16852;51.446;6.528;2022-12-18T11:07:06;0.80;99.90
27858;DHT22;16852;51.446;6.528;2022-12-18T11:09:24;0.80;99.90
27858;DHT22;16852;51.446;6.528;2022-12-18T11:11:25;0.80;99.90
27858;DHT22;16852;51.446;6.528;2022-12-18T11:13:28;0.80;99.90
27858;DHT22;16852;51.446;6.528;2022-12-18T11:15:30;0.80;99.90
27858;DHT22;16852;51.446;6.528;2022-12-18T11:17:35;0.80;99.90
27858;DHT22;16852;51.446;6.528;2022-12-18T11:19:37;0.80;99.90
27858;DHT22;16852;51.446;6.528;2022-12-18T11:21:41;0.80;99.90
27858;DHT22;16852;51.446;6.528;2022-12-18T11:23:53;0.90;99.90
27858;DHT22;16852;51.446;6.528;2022-12-18T11:25:59;0.90;99.90
27858;DHT22;16852;51.446;6.528;2022-12-18T11:28:05;0.90;99.90
27858;DHT22;16852;51.446;6.528;2022-12-18T11:30:25;0.90;99.90
27858;DHT22;16852;51.446;6.528;2022-12-18T11:32:33;0.90;99.90
27858;DHT22;16852;51.446;6.528;2022-12-18T11:34:36;0.90;99.90
27858;DHT22;16852;51.446;6.528;2022-12-18T11:36:41;0.90;99.90
27858;DHT22;16852;51.446;6.528;2022-12-18T11:38:43;0.90;99.90
27858;DHT22;16852;51.446;6.528;2022-12-18T11:40:49;0.90;99.90
27858;DHT22;16852;51.446;6.528;2022-12-18T11:42:54;0.90;99.90
27858;DHT22;16852;51.446;6.528;2022-12-18T11:49:32;0.90;99.90
27858;DHT22;16852;51.446;6.528;2022-12-18T11:51:41;1.00;99.90
27858;DHT22;16852;51.446;6.528;2022-12-18T11:53:44;1.00;99.90
27858;DHT22;16852;51.446;6.528;2022-12-18T12:00:49;1.00;99.90
27858;DHT22;16852;51.446;6.528;2022-12-18T12:03:20;1.00;99.90
27858;DHT22;16852;51.446;6.528;2022-12-18T12:08:26;1.00;99.90
27858;DHT22;16852;51.446;6.528;2022-12-18T12:12:53;1.10;99.90
27858;DHT22;16852;51.446;6.528;2022-12-18T12:27:09;1.10;99.90
27858;DHT22;16852;51.446;6.528;2022-12-18T12:32:04;1.10;99.90
27858;DHT22;16852;51.446;6.528;2022-12-18T12:34:20;1.10;99.90
27858;DHT22;16852;51.446;6.528;2022-12-18T12:36:42;1.10;99.90
27858;DHT22;16852;51.446;6.528;2022-12-18T12:39:01;1.00;99.90
27858;DHT22;16852;51.446;6.528;2022-12-18T12:41:09;1.10;99.90
27858;DHT22;16852;51.446;6.528;2022-12-18T12:43:44;1.10;99.90
27858;DHT22;16852;51.446;6.528;2022-12-18T12:45:57;1.10;99.90
27858;DHT22;16852;51.446;6.528;2022-12-18T12:48:02;1.10;99.90
27858;DHT22;16852;51.446;6.528;2022-12-18T12:50:13;1.10;99.90
27858;DHT22;16852;51.446;6.528;2022-12-18T12:52:33;1.10;99.90
27858;DHT22;16852;51.446;6.528;2022-12-18T12:54:35;1.10;99.90
27858;DHT22;16852;51.446;6.528;2022-12-18T12:56:57;1.10;99.90
27858;DHT22;16852;51.446;6.528;2022-12-18T12:59:34;1.20;99.90
27858;DHT22;16852;51.446;6.528;2022-12-18T13:01:47;1.10;99.90
27858;DHT22;16852;51.446;6.528;2022-12-18T13:06:37;1.10;99.90
27858;DHT22;16852;51.446;6.528;2022-12-18T13:08:58;1.10;99.90
27858;DHT22;16852;51.446;6.528;2022-12-18T13:10:59;1.10;99.90
27858;DHT22;16852;51.446;6.528;2022-12-18T13:13:19;1.10;99.90
27858;DHT22;16852;51.446;6.528;2022-12-18T13:15:24;1.10;99.90
27858;DHT22;16852;51.446;6.528;2022-12-18T13:17:29;1.10;99.90
27858;DHT22;16852;51.446;6.528;2022-12-18T13:19:31;1.20;99.90
27858;DHT22;16852;51.446;6.528;2022-12-18T13:21:35;1.20;99.90
27858;DHT22;16852;51.446;6.528;2022-12-18T13:23:38;1.20;99.90
27858;DHT22;16852;51.446;6.528;2022-12-18T13:25:39;1.20;99.90
27858;DHT22;16852;51.446;6.528;2022-12-18T13:29:43;1.20;99.90
27858;DHT22;16852;51.446;6.528;2022-12-18T13:31:58;1.20;99.90
27858;DHT22;16852;51.446;6.528;2022-12-18T13:34:21;1.20;99.90
27858;DHT22;16852;51.446;6.528;2022-12-18T13:38:34;1.20;99.90
27858;DHT22;16852;51.446;6.528;2022-12-18T13:42:48;1.20;99.90
27858;DHT22;16852;51.446;6.528;2022-12-18T13:45:40;1.10;99.90
27858;DHT22;16852;51.446;6.528;2022-12-18T13:47:43;1.10;99.90
27858;DHT22;16852;51.446;6.528;2022-12-18T13:49:44;1.10;99.90
27858;DHT22;16852;51.446;6.528;2022-12-18T13:51:49;1.00;99.90
27858;DHT22;16852;51.446;6.528;2022-12-18T13:53:51;1.00;99.90
27858;DHT22;16852;51.446;6.528;2022-12-18T13:55:54;1.10;99.90
27858;DHT22;16852;51.446;6.528;2022-12-18T13:58:05;1.10;99.90
27858;DHT22;16852;51.446;6.528;2022-12-18T14:00:28;1.10;99.90
27858;DHT22;16852;51.446;6.528;2022-12-18T14:02:29;1.10;99.90
27858;DHT22;16852;51.446;6.528;2022-12-18T14:04:32;1.10;99.90
27858;DHT22;16852;51.446;6.528;2022-12-18T14:06:34;1.10;99.90
27858;DHT22;16852;51.446;6.528;2022-12-18T14:08:40;1.00;99.90
27858;DHT22;16852;51.446;6.528;2022-12-18T14:10:48;1.10;99.90
27858;DHT22;16852;51.446;6.528;2022-12-18T14:12:51;1.00;99.90
27858;DHT22;16852;51.446;6.528;2022-12-18T14:14:58;1.00;99.90
27858;DHT22;16852;51.446;6.528;2022-12-18T14:16:59;1.00;99.90